Time;durP1;ratioP1;P1;durP2;ratioP2;P2;SDS_P1;SDS_P2;PMS_P1;PMS_P2;Temp;Humidity;BMP_temperature;BMP_pressure;BME280_temperature;BME280_humidity;BME280_pressure;Samples;Min_cycle;Max_cycle;Signal;HPM_P1;HPM_P2
2022/04/28 00:00:54;;;;;;;5.78;3.03;;;15.10;99.90;;;;;;5080404;28;20035;-83
2022/04/28 00:03:19;;;;;;;4.55;3.08;;;15.20;99.90;;;;;;5082217;28;20016;-83
2022/04/28 00:05:46;;;;;;;3.05;2.75;;;15.10;99.90;;;;;;5083053;28;20502;-82
2022/04/28 00:08:12;;;;;;;3.78;2.60;;;15.10;99.90;;;;;;5086848;28;20024;-83
2022/04/28 00:10:39;;;;;;;4.00;2.67;;;15.10;99.90;;;;;;5079734;28;20066;-83
2022/04/28 00:13:07;;;;;;;2.78;2.50;;;15.10;99.90;;;;;;5076913;28;20111;-83
2022/04/28 00:15:33;;;;;;;6.57;2.75;;;15.00;99.90;;;;;;5063562;28;20028;-82
2022/04/28 00:17:58;;;;;;;3.60;2.35;;;14.90;99.90;;;;;;5062194;28;20021;-82
2022/04/28 00:20:24;;;;;;;4.40;3.00;;;14.90;99.90;;;;;;5085727;28;20111;-82
2022/04/28 00:22:50;;;;;;;3.85;2.67;;;14.80;99.90;;;;;;5080515;28;20025;-82
2022/04/28 00:25:16;;;;;;;2.42;2.03;;;14.80;99.90;;;;;;5071400;28;20012;-82
2022/04/28 00:27:41;;;;;;;3.47;2.30;;;14.90;99.90;;;;;;5073586;28;20107;-83
2022/04/28 00:30:08;;;;;;;3.38;2.35;;;14.90;99.90;;;;;;5087632;28;20020;-83
2022/04/28 00:32:34;;;;;;;2.60;2.40;;;14.90;99.90;;;;;;5066800;28;20103;-83
2022/04/28 00:35:00;;;;;;;3.03;2.72;;;14.90;99.90;;;;;;5081542;28;20036;-83
2022/04/28 00:37:26;;;;;;;4.68;2.60;;;14.80;99.90;;;;;;5084131;28;20489;-83
2022/04/28 00:39:51;;;;;;;3.20;2.88;;;14.80;99.90;;;;;;5070347;28;20033;-83
2022/04/28 00:42:19;;;;;;;4.15;3.35;;;14.90;99.90;;;;;;5081015;28;20111;-83
2022/04/28 00:44:46;;;;;;;3.95;3.17;;;15.00;99.90;;;;;;5080701;28;20028;-83
2022/04/28 00:47:12;;;;;;;6.20;3.78;;;15.00;99.90;;;;;;5065659;28;20074;-84
2022/04/28 00:52:24;;;;;;;3.30;3.00;;;15.00;99.90;;;;;;5083649;28;20031;-84
2022/04/28 00:54:52;;;;;;;3.97;2.90;;;15.10;99.90;;;;;;5078803;28;20048;-85
2022/04/28 00:57:19;;;;;;;5.35;3.58;;;15.20;99.90;;;;;;5078774;28;20036;-84
2022/04/28 00:59:46;;;;;;;4.95;3.72;;;15.30;99.90;;;;;;5064269;28;20116;-84
2022/04/28 01:02:12;;;;;;;6.05;3.20;;;15.20;99.90;;;;;;5085568;28;20078;-84
2022/04/28 01:04:39;;;;;;;3.83;3.30;;;15.10;99.90;;;;;;5079060;28;20046;-83
2022/04/28 01:07:05;;;;;;;6.72;3.65;;;15.10;99.90;;;;;;5079798;28;20039;-82
2022/04/28 01:09:37;;;;;;;5.05;3.42;;;15.10;99.90;;;;;;5084188;28;20024;-82
2022/04/28 01:12:10;;;;;;;3.75;3.38;;;15.00;99.90;;;;;;5073024;28;20025;-83
2022/04/28 01:14:35;;;;;;;3.63;3.30;;;15.10;99.90;;;;;;5080306;28;20052;-83
2022/04/28 01:17:02;;;;;;;3.53;3.20;;;15.00;99.90;;;;;;5082540;28;20055;-82
2022/04/28 01:19:28;;;;;;;3.92;2.95;;;15.10;99.90;;;;;;5063170;28;20033;-84
2022/04/28 01:21:55;;;;;;;4.15;3.42;;;15.10;99.90;;;;;;5074302;28;20032;-84
2022/04/28 01:24:20;;;;;;;4.65;3.80;;;15.10;99.90;;;;;;5072247;28;20050;-84
2022/04/28 01:26:48;;;;;;;5.68;4.20;;;15.10;99.90;;;;;;5084439;28;20498;-84
2022/04/28 01:29:13;;;;;;;5.50;3.65;;;15.00;99.90;;;;;;5078741;28;20032;-84
2022/04/28 01:31:39;;;;;;;5.68;4.10;;;14.90;99.90;;;;;;5070313;28;20031;-83
2022/04/28 01:34:05;;;;;;;4.72;4.05;;;14.90;99.90;;;;;;5072994;28;20095;-84
2022/04/28 01:36:31;;;;;;;5.90;3.50;;;15.00;99.90;;;;;;5076433;28;20577;-84
2022/04/28 01:38:57;;;;;;;5.22;3.63;;;15.00;99.90;;;;;;5063947;28;20029;-84
2022/04/28 01:41:23;;;;;;;4.50;4.00;;;15.00;99.90;;;;;;5085935;28;20042;-84
2022/04/28 01:43:49;;;;;;;6.78;4.13;;;15.00;99.90;;;;;;5079709;28;20511;-83
2022/04/28 01:46:15;;;;;;;4.55;3.60;;;15.00;99.90;;;;;;5071668;28;20017;-84
2022/04/28 01:48:40;;;;;;;4.10;3.45;;;15.10;99.90;;;;;;5068354;28;20047;-84
2022/04/28 01:56:35;;;;;;;4.95;4.00;;;15.10;99.90;;;;;;5080485;28;20068;-84
2022/04/28 01:59:00;;;;;;;7.40;3.45;;;15.20;99.90;;;;;;5084108;28;20481;-85
2022/04/28 02:01:26;;;;;;;4.93;3.95;;;15.20;99.90;;;;;;5083244;28;20091;-85
2022/04/28 02:03:52;;;;;;;5.65;3.88;;;15.20;99.90;;;;;;5078784;28;20078;-84
2022/04/28 02:06:18;;;;;;;4.07;3.55;;;15.20;99.90;;;;;;5081816;28;20481;-85
2022/04/28 02:08:45;;;;;;;5.10;3.58;;;15.30;99.90;;;;;;5074093;28;20506;-84
2022/04/28 02:11:10;;;;;;;4.72;3.75;;;15.20;99.90;;;;;;5075246;28;20048;-85
2022/04/28 02:13:36;;;;;;;3.47;3.15;;;15.30;99.90;;;;;;5080844;28;20063;-85
2022/04/28 02:16:02;;;;;;;4.72;3.55;;;15.30;99.90;;;;;;5075569;28;20502;-84
2022/04/28 02:18:28;;;;;;;5.82;3.70;;;15.20;99.90;;;;;;5079049;28;20029;-84
2022/04/28 02:20:54;;;;;;;6.68;4.20;;;15.20;99.90;;;;;;5081844;28;20529;-84
2022/04/28 02:23:19;;;;;;;4.18;3.67;;;15.00;99.90;;;;;;5077440;28;20029;-85
2022/04/28 02:25:45;;;;;;;5.43;3.92;;;15.00;99.90;;;;;;5082716;28;20032;-85
2022/04/28 02:28:11;;;;;;;4.68;3.88;;;15.10;99.90;;;;;;5081587;28;20029;-85
2022/04/28 02:30:36;;;;;;;4.40;3.35;;;15.20;99.90;;;;;;5076812;28;20024;-84
2022/04/28 02:33:08;;;;;;;4.07;3.25;;;15.10;99.90;;;;;;5062256;28;20508;-85
2022/04/28 02:35:34;;;;;;;5.85;3.70;;;15.00;99.90;;;;;;5064976;28;20020;-86
2022/04/28 02:38:00;;;;;;;5.75;3.67;;;15.00;99.90;;;;;;5084568;28;20009;-85
2022/04/28 02:40:25;;;;;;;5.60;3.67;;;15.00;99.90;;;;;;5077973;28;20035;-84
2022/04/28 02:42:52;;;;;;;4.22;3.40;;;15.00;99.90;;;;;;5076450;28;20555;-84
2022/04/28 02:45:18;;;;;;;5.57;4.03;;;14.90;99.90;;;;;;5063398;28;20024;-85
2022/04/28 02:47:43;;;;;;;5.88;3.42;;;14.90;99.90;;;;;;5070771;28;20047;-85
2022/04/28 02:50:12;;;;;;;4.38;3.80;;;15.00;99.90;;;;;;5079701;28;20082;-84
2022/04/28 02:52:39;;;;;;;3.72;3.40;;;15.00;99.90;;;;;;5081571;28;20025;-85
2022/04/28 02:55:06;;;;;;;5.05;3.95;;;15.00;99.90;;;;;;5075783;28;20093;-85
2022/04/28 02:57:31;;;;;;;5.90;3.42;;;15.00;99.90;;;;;;5079140;28;20036;-86
2022/04/28 02:59:58;;;;;;;6.07;3.70;;;15.00;99.90;;;;;;5079458;28;20494;-86
2022/04/28 03:02:24;;;;;;;4.97;3.53;;;15.00;99.90;;;;;;5084464;28;20048;-85
2022/04/28 03:04:50;;;;;;;6.13;4.18;;;14.90;99.90;;;;;;5085217;28;20020;-85
2022/04/28 03:12:45;;;;;;;5.25;3.92;;;14.80;99.90;;;;;;5066847;28;20062;-84
2022/04/28 03:15:11;;;;;;;4.03;3.13;;;14.70;99.90;;;;;;5065185;28;20052;-85
2022/04/28 03:17:37;;;;;;;5.10;3.40;;;14.70;99.90;;;;;;5082258;28;20060;-86
2022/04/28 03:20:04;;;;;;;4.50;3.35;;;14.60;99.90;;;;;;5082325;28;20516;-86
2022/04/28 03:22:30;;;;;;;4.90;3.40;;;14.60;99.90;;;;;;5079028;28;20028;-85
2022/04/28 03:24:56;;;;;;;5.70;3.63;;;14.60;99.90;;;;;;5071939;28;20540;-86
2022/04/28 03:27:22;;;;;;;7.20;3.40;;;14.80;99.90;;;;;;5072370;28;20024;-84
2022/04/28 03:29:48;;;;;;;4.30;3.13;;;14.90;99.90;;;;;;5074672;28;20035;-84
2022/04/28 03:32:14;;;;;;;4.57;3.25;;;14.80;99.90;;;;;;5072377;28;20151;-84
2022/04/28 03:34:40;;;;;;;3.97;3.20;;;14.80;99.90;;;;;;5078271;28;20022;-84
2022/04/28 03:37:06;;;;;;;4.93;3.20;;;14.80;99.90;;;;;;5080341;28;20032;-83
2022/04/28 03:39:31;;;;;;;4.63;3.42;;;14.80;99.90;;;;;;5079349;28;20489;-83
2022/04/28 03:41:58;;;;;;;2.90;2.70;;;14.90;99.90;;;;;;5067585;28;20039;-83
2022/04/28 03:44:23;;;;;;;4.93;2.97;;;14.80;99.90;;;;;;5090567;28;20023;-84
2022/04/28 03:46:49;;;;;;;3.72;2.72;;;14.90;99.90;;;;;;5075470;28;20021;-89
2022/04/28 03:49:15;;;;;;;3.35;3.05;;;14.90;99.90;;;;;;5075720;28;20023;-88
2022/04/28 03:51:40;;;;;;;4.85;3.13;;;14.80;99.90;;;;;;5061823;28;20493;-88
2022/04/28 03:54:06;;;;;;;4.40;2.90;;;14.80;99.90;;;;;;5071919;28;20506;-90
2022/04/28 03:56:33;;;;;;;4.55;3.33;;;14.60;99.90;;;;;;5076789;28;20170;-89
2022/04/28 03:58:59;;;;;;;5.43;3.10;;;14.60;99.90;;;;;;5062715;28;20025;-91
2022/04/28 04:01:27;;;;;;;3.05;2.78;;;14.50;99.90;;;;;;5068024;28;20048;-92
2022/04/28 04:03:52;;;;;;;5.05;3.65;;;14.50;99.90;;;;;;5085252;28;20020;-91
2022/04/28 04:06:18;;;;;;;3.40;3.08;;;14.60;99.90;;;;;;5073210;28;20485;-90
2022/04/28 04:08:45;;;;;;;4.18;2.88;;;14.60;99.90;;;;;;5064641;28;20028;-88
2022/04/28 04:11:12;;;;;;;2.85;2.53;;;14.70;99.90;;;;;;5072125;28;21164;-89
2022/04/28 04:13:38;;;;;;;5.78;3.30;;;14.50;99.90;;;;;;5076806;28;20052;-90
2022/04/28 04:16:04;;;;;;;3.80;2.88;;;14.50;99.90;;;;;;5073495;28;20020;-89
2022/04/28 04:18:30;;;;;;;5.70;3.30;;;14.60;99.90;;;;;;5073722;28;20142;-89
2022/04/28 04:20:56;;;;;;;3.80;2.67;;;14.50;99.90;;;;;;5077133;28;20124;-88
2022/04/28 04:23:22;;;;;;;4.72;3.13;;;14.50;99.90;;;;;;5082938;28;20578;-89
2022/04/28 04:25:48;;;;;;;4.03;3.38;;;14.40;99.90;;;;;;5070647;28;20032;-89
2022/04/28 04:28:14;;;;;;;3.95;3.15;;;14.40;99.90;;;;;;5062821;28;20469;-89
2022/04/28 04:33:43;;;;;;;5.43;3.38;;;14.40;99.90;;;;;;5033306;28;20056;-90
2022/04/28 04:36:09;;;;;;;3.88;3.08;;;14.50;99.90;;;;;;5030768;28;20044;-89
2022/04/28 04:38:35;;;;;;;3.78;3.38;;;14.50;99.90;;;;;;5027628;28;20597;-88
2022/04/28 04:41:01;;;;;;;3.95;3.50;;;14.50;99.90;;;;;;5041575;28;20029;-90
2022/04/28 04:43:26;;;;;;;6.78;3.70;;;14.50;99.90;;;;;;5025474;28;20519;-88
2022/04/28 04:45:52;;;;;;;3.47;2.75;;;14.50;99.90;;;;;;5029151;28;20033;-88
2022/04/28 04:48:18;;;;;;;4.75;3.47;;;14.50;99.90;;;;;;5019655;28;20580;-89
2022/04/28 04:50:43;;;;;;;4.18;3.13;;;14.60;99.90;;;;;;5026439;28;20045;-89
2022/04/28 04:53:09;;;;;;;3.92;3.15;;;14.60;99.90;;;;;;5021665;28;20470;-89
2022/04/28 04:55:42;;;;;;;3.63;3.33;;;14.60;99.90;;;;;;5037737;28;20067;-88
2022/04/28 04:58:08;;;;;;;5.07;3.72;;;14.70;99.90;;;;;;5020783;28;20036;-88
2022/04/28 05:00:34;;;;;;;4.68;3.50;;;14.80;99.90;;;;;;5025691;28;20361;-90
2022/04/28 05:02:59;;;;;;;3.55;3.03;;;14.70;99.90;;;;;;5040371;28;20040;-89
2022/04/28 05:05:25;;;;;;;4.00;3.22;;;14.70;99.90;;;;;;5056975;28;20036;-89
2022/04/28 05:07:50;;;;;;;4.15;2.90;;;14.60;99.90;;;;;;5072046;28;20396;-89
2022/04/28 05:10:16;;;;;;;4.00;3.00;;;14.70;99.90;;;;;;5075393;28;20038;-89
2022/04/28 05:12:42;;;;;;;3.53;3.22;;;14.70;99.90;;;;;;5064321;28;20024;-89
2022/04/28 05:15:08;;;;;;;4.60;2.85;;;14.70;99.90;;;;;;5066353;28;20058;-88
2022/04/28 05:17:35;;;;;;;5.68;3.30;;;14.70;99.90;;;;;;5077804;28;20021;-89
2022/04/28 05:20:01;;;;;;;4.75;2.90;;;14.70;99.90;;;;;;5084444;28;20024;-88
2022/04/28 05:22:27;;;;;;;3.30;3.00;;;14.70;99.90;;;;;;5077308;28;20451;-89
2022/04/28 05:24:52;;;;;;;3.85;2.75;;;14.80;99.90;;;;;;5074804;28;20020;-90
2022/04/28 05:27:18;;;;;;;3.85;2.85;;;14.80;99.90;;;;;;5059154;28;20031;-88
2022/04/28 05:29:44;;;;;;;2.75;2.55;;;14.80;99.90;;;;;;5065904;28;20541;-88
2022/04/28 05:32:10;;;;;;;3.25;2.95;;;14.80;99.90;;;;;;5073419;28;20096;-89
2022/04/28 05:34:35;;;;;;;4.55;3.22;;;14.70;99.90;;;;;;5079978;28;20099;-89
2022/04/28 05:37:02;;;;;;;3.00;2.42;;;14.80;99.90;;;;;;5068794;28;20033;-90
2022/04/28 05:39:28;;;;;;;3.53;2.55;;;14.70;99.90;;;;;;5077173;28;20028;-89
2022/04/28 05:41:55;;;;;;;4.22;2.90;;;14.60;99.90;;;;;;5080839;28;20052;-90
2022/04/28 05:47:05;;;;;;;2.95;2.33;;;14.70;99.90;;;;;;5067097;28;20407;-89
2022/04/28 05:49:32;;;;;;;3.55;2.95;;;14.60;99.90;;;;;;5075179;28;20036;-90
2022/04/28 05:51:57;;;;;;;3.75;2.70;;;14.60;99.90;;;;;;5067554;28;20016;-89
2022/04/28 05:54:23;;;;;;;2.72;2.40;;;14.50;99.90;;;;;;5063456;28;20020;-88
2022/04/28 05:56:50;;;;;;;3.20;2.45;;;14.60;99.90;;;;;;5070822;28;20415;-89
2022/04/28 05:59:16;;;;;;;11.68;3.15;;;14.60;99.90;;;;;;5072746;28;20028;-89
2022/04/28 06:01:42;;;;;;;4.78;2.53;;;14.70;99.90;;;;;;5065566;28;20488;-89
2022/04/28 06:04:09;;;;;;;4.45;3.25;;;14.60;99.90;;;;;;5070362;28;20038;-88
2022/04/28 06:06:35;;;;;;;3.00;2.75;;;14.70;99.90;;;;;;5064797;28;20026;-88
2022/04/28 06:09:00;;;;;;;3.72;2.47;;;14.60;99.90;;;;;;5065170;28;20120;-88
2022/04/28 06:11:26;;;;;;;3.75;2.78;;;14.70;99.90;;;;;;5075800;28;20506;-87
2022/04/28 06:13:52;;;;;;;4.20;2.92;;;14.80;99.90;;;;;;5082614;28;20110;-87
2022/04/28 06:16:18;;;;;;;3.05;2.65;;;14.80;99.90;;;;;;5070029;28;20020;-88
2022/04/28 06:18:44;;;;;;;3.20;2.80;;;14.70;99.90;;;;;;5074624;28;20034;-88
2022/04/28 06:21:10;;;;;;;3.72;3.10;;;14.60;99.90;;;;;;5083729;28;20073;-89
2022/04/28 06:23:35;;;;;;;3.17;2.78;;;14.70;99.90;;;;;;5080144;28;20413;-88
2022/04/28 06:26:01;;;;;;;3.05;2.63;;;14.60;99.90;;;;;;5068611;28;20024;-88
2022/04/28 06:28:27;;;;;;;7.40;2.95;;;14.50;99.90;;;;;;5075200;28;20032;-89
2022/04/28 06:30:53;;;;;;;3.15;2.85;;;14.60;99.90;;;;;;5067058;28;20020;-88
2022/04/28 06:33:20;;;;;;;4.07;2.90;;;14.60;99.90;;;;;;5074502;28;20024;-87
2022/04/28 06:35:46;;;;;;;3.42;3.13;;;14.60;99.90;;;;;;5055829;28;20036;-88
2022/04/28 06:38:12;;;;;;;4.75;3.03;;;14.50;99.90;;;;;;5077283;28;20131;-88
2022/04/28 06:40:37;;;;;;;5.40;3.28;;;14.60;99.90;;;;;;5081327;28;20669;-90
2022/04/28 06:43:03;;;;;;;5.70;3.20;;;14.70;99.90;;;;;;5080636;28;20051;-89
2022/04/28 06:45:29;;;;;;;4.13;3.00;;;14.80;99.90;;;;;;5061093;28;20020;-90
2022/04/28 06:47:55;;;;;;;5.18;3.10;;;14.80;99.90;;;;;;5064576;28;20495;-90
2022/04/28 06:50:20;;;;;;;4.57;3.22;;;14.80;99.90;;;;;;5083557;28;20115;-89
2022/04/28 06:52:46;;;;;;;4.63;3.30;;;14.80;99.90;;;;;;5067116;28;20052;-90
2022/04/28 06:55:12;;;;;;;4.13;3.30;;;14.90;99.90;;;;;;5071770;28;20555;-90
2022/04/28 06:57:38;;;;;;;5.13;3.80;;;15.00;99.90;;;;;;5064117;28;20094;-91
2022/04/28 07:00:06;;;;;;;9.27;3.40;;;14.90;99.90;;;;;;5076306;28;20513;-90
2022/04/28 07:02:32;;;;;;;3.92;3.28;;;15.10;99.90;;;;;;5059880;28;20032;-90
2022/04/28 07:04:58;;;;;;;5.40;3.50;;;15.20;99.90;;;;;;5069768;28;20029;-89
2022/04/28 07:07:23;;;;;;;3.45;3.08;;;15.20;99.90;;;;;;5073451;28;20537;-91
2022/04/28 07:09:49;;;;;;;6.05;3.83;;;15.20;99.90;;;;;;5062048;28;20236;-90
2022/04/28 07:12:15;;;;;;;5.13;3.47;;;15.20;99.90;;;;;;5062425;28;20028;-90
2022/04/28 07:14:42;;;;;;;3.55;3.15;;;15.30;99.90;;;;;;5074680;28;20032;-89
2022/04/28 07:17:08;;;;;;;3.47;3.10;;;15.30;99.90;;;;;;5081402;28;20166;-89
2022/04/28 07:19:33;;;;;;;3.97;3.10;;;15.40;99.90;;;;;;5075405;28;20091;-88
2022/04/28 07:22:02;;;;;;;4.20;3.38;;;15.40;99.90;;;;;;5081040;28;20035;-89
2022/04/28 07:24:29;;;;;;;4.50;3.08;;;15.30;99.90;;;;;;5073144;28;20190;-89
2022/04/28 07:26:55;;;;;;;8.85;3.88;;;15.30;99.90;;;;;;5072446;28;20676;-89
2022/04/28 07:29:21;;;;;;;6.53;3.88;;;15.40;99.90;;;;;;5073043;28;20098;-88
2022/04/28 07:31:46;;;;;;;5.07;3.42;;;15.30;99.90;;;;;;5065671;28;20058;-89
2022/04/28 07:34:12;;;;;;;5.07;3.40;;;15.30;99.90;;;;;;5067152;28;20115;-89
2022/04/28 07:36:38;;;;;;;5.85;3.33;;;15.20;99.90;;;;;;5066293;28;20024;-86
2022/04/28 07:39:04;;;;;;;5.60;4.00;;;15.20;99.90;;;;;;5065893;28;20504;-86
2022/04/28 07:41:30;;;;;;;6.10;3.53;;;15.20;99.90;;;;;;5066425;28;20534;-86
2022/04/28 07:43:55;;;;;;;4.90;3.65;;;15.30;99.90;;;;;;5060657;28;20050;-84
2022/04/28 07:46:21;;;;;;;5.30;3.70;;;15.40;99.90;;;;;;5068318;28;20051;-85
2022/04/28 07:48:47;;;;;;;6.82;3.45;;;15.50;99.90;;;;;;5065877;28;20110;-84
2022/04/28 07:51:13;;;;;;;5.20;3.70;;;15.40;99.90;;;;;;5083347;28;20032;-86
2022/04/28 07:53:38;;;;;;;5.40;3.90;;;15.40;99.90;;;;;;5082716;28;20659;-86
2022/04/28 07:56:10;;;;;;;5.18;3.70;;;15.50;99.90;;;;;;5067434;28;20047;-87
2022/04/28 07:58:37;;;;;;;6.45;3.83;;;15.60;99.90;;;;;;5064362;28;20028;-84
2022/04/28 08:01:06;;;;;;;6.28;4.10;;;15.50;99.90;;;;;;5069532;28;20031;-89
2022/04/28 08:03:32;;;;;;;6.45;4.70;;;15.30;99.90;;;;;;5070428;28;20043;-88
2022/04/28 08:05:58;;;;;;;6.13;4.30;;;15.30;99.90;;;;;;5073126;28;20027;-89
2022/04/28 08:08:24;;;;;;;5.93;4.97;;;15.40;99.90;;;;;;5061278;28;20128;-89
2022/04/28 08:10:50;;;;;;;6.32;5.03;;;15.40;99.90;;;;;;5071460;28;20520;-90
2022/04/28 08:13:16;;;;;;;6.82;4.28;;;15.30;99.90;;;;;;5072996;28;20021;-89
2022/04/28 08:15:42;;;;;;;5.75;4.55;;;15.30;99.90;;;;;;5069701;28;20548;-89
2022/04/28 08:18:08;;;;;;;4.75;3.95;;;15.40;99.90;;;;;;5060575;28;20029;-90
2022/04/28 08:20:34;;;;;;;5.05;4.18;;;15.30;99.90;;;;;;5075252;28;20524;-90
2022/04/28 08:23:00;;;;;;;5.43;4.65;;;15.30;99.90;;;;;;5067344;28;20029;-88
2022/04/28 08:25:26;;;;;;;8.18;4.85;;;15.40;99.90;;;;;;5069703;28;20409;-88
2022/04/28 08:27:51;;;;;;;5.88;4.40;;;15.30;99.90;;;;;;5069782;28;20024;-88
2022/04/28 08:30:17;;;;;;;7.78;4.65;;;15.30;99.90;;;;;;5077655;28;20521;-88
2022/04/28 08:32:43;;;;;;;8.25;4.95;;;15.30;99.90;;;;;;5058386;28;20021;-88
2022/04/28 08:35:09;;;;;;;8.00;5.18;;;15.30;99.90;;;;;;5070049;28;20025;-88
2022/04/28 08:37:36;;;;;;;9.00;5.50;;;15.20;99.90;;;;;;5074502;28;20466;-89
2022/04/28 08:40:03;;;;;;;11.95;6.85;;;15.20;99.90;;;;;;5066150;28;20029;-88
2022/04/28 08:42:31;;;;;;;7.82;6.28;;;15.10;99.90;;;;;;5063209;28;20039;-89
2022/04/28 08:45:00;;;;;;;8.40;6.38;;;15.20;99.90;;;;;;5067191;28;20025;-88
2022/04/28 08:47:25;;;;;;;9.52;6.35;;;15.10;99.90;;;;;;5079483;28;20115;-89
2022/04/28 08:49:51;;;;;;;10.07;6.22;;;15.10;99.90;;;;;;5078083;28;20114;-89
2022/04/28 08:52:18;;;;;;;9.27;5.93;;;15.20;99.90;;;;;;5081466;28;20073;-89
2022/04/28 08:54:45;;;;;;;11.05;6.53;;;15.10;99.90;;;;;;5080204;28;20024;-91
2022/04/28 08:57:13;;;;;;;8.38;6.60;;;15.20;99.90;;;;;;5067969;28;20040;-88
2022/04/28 08:59:39;;;;;;;11.07;7.35;;;15.10;99.90;;;;;;5056626;28;20033;-87
2022/04/28 09:02:05;;;;;;;9.98;6.90;;;15.00;99.90;;;;;;5071386;28;20081;-90
2022/04/28 09:04:32;;;;;;;10.95;7.32;;;15.00;99.90;;;;;;5073569;28;20027;-89
2022/04/28 09:06:59;;;;;;;11.10;7.93;;;15.10;99.90;;;;;;5066224;28;20032;-89
2022/04/28 09:09:27;;;;;;;10.98;6.97;;;15.00;99.90;;;;;;5073086;28;20099;-89
2022/04/28 09:11:57;;;;;;;12.48;7.50;;;15.00;99.90;;;;;;5066812;28;20025;-90
2022/04/28 09:14:23;;;;;;;10.57;7.68;;;15.10;99.90;;;;;;5080670;28;20024;-89
2022/04/28 09:16:52;;;;;;;11.07;7.22;;;15.20;99.90;;;;;;5067380;28;20021;-89
2022/04/28 09:19:25;;;;;;;9.45;6.13;;;15.30;99.90;;;;;;5073123;28;20493;-89
2022/04/28 09:22:09;;;;;;;9.60;6.82;;;15.40;99.90;;;;;;5072903;28;20020;-90
2022/04/28 09:24:36;;;;;;;9.57;6.82;;;15.40;99.90;;;;;;5067371;28;20027;-89
2022/04/28 09:27:03;;;;;;;9.90;6.57;;;15.20;99.90;;;;;;5072754;28;20405;-89
2022/04/28 09:29:30;;;;;;;9.15;6.30;;;15.40;99.90;;;;;;5076805;28;20017;-89
2022/04/28 09:31:56;;;;;;;8.60;6.18;;;15.40;99.90;;;;;;5070582;28;20130;-89
2022/04/28 09:34:23;;;;;;;9.77;5.70;;;15.50;99.90;;;;;;5077305;28;20020;-89
2022/04/28 09:36:50;;;;;;;9.32;6.50;;;15.40;99.90;;;;;;5076475;28;20028;-90
2022/04/28 09:44:56;;;;;;;7.80;5.60;;;15.20;99.90;;;;;;5066377;28;20568;-88
2022/04/28 09:47:23;;;;;;;7.82;5.78;;;15.20;99.90;;;;;;5071789;28;20498;-88
2022/04/28 09:49:53;;;;;;;9.10;6.50;;;15.20;99.90;;;;;;5078016;28;20024;-89
2022/04/28 09:52:20;;;;;;;9.57;6.80;;;15.30;99.90;;;;;;5070858;28;20142;-89
2022/04/28 09:54:47;;;;;;;11.60;7.53;;;15.30;99.90;;;;;;5064933;28;20024;-90
2022/04/28 09:57:14;;;;;;;10.00;6.90;;;15.20;99.90;;;;;;5060491;28;20052;-89
2022/04/28 09:59:40;;;;;;;9.77;6.80;;;15.30;99.90;;;;;;5062075;28;20076;-90
2022/04/28 10:02:11;;;;;;;8.90;6.38;;;15.40;99.90;;;;;;5075808;28;20514;-89
2022/04/28 10:04:37;;;;;;;7.80;6.30;;;15.40;99.90;;;;;;5077146;28;20024;-90
2022/04/28 10:07:06;;;;;;;10.43;6.80;;;15.50;99.90;;;;;;5064648;28;20062;-90
2022/04/28 10:09:32;;;;;;;8.63;6.80;;;15.40;99.90;;;;;;5083201;28;20493;-90
2022/04/28 10:11:59;;;;;;;9.73;7.20;;;15.50;99.90;;;;;;5069459;28;20120;-90
2022/04/28 10:14:26;;;;;;;9.77;7.28;;;15.60;99.90;;;;;;5067289;28;20038;-90
2022/04/28 10:16:52;;;;;;;7.40;5.60;;;15.70;99.90;;;;;;5073466;28;20052;-89
2022/04/28 10:19:28;;;;;;;9.02;6.43;;;15.90;99.90;;;;;;5071123;28;20505;-90
2022/04/28 10:21:58;;;;;;;9.38;6.28;;;16.00;99.90;;;;;;5068186;28;20036;-90
2022/04/28 10:32:58;;;;;;;16.92;9.98;;;16.20;99.90;;;;;;5059001;28;20032;-90
2022/04/28 10:35:50;;;;;;;15.77;8.27;;;16.00;99.90;;;;;;5065100;28;20629;-90
2022/04/28 10:38:31;;;;;;;14.25;8.93;;;16.20;99.90;;;;;;5068537;28;20029;-90
2022/04/28 10:41:04;;;;;;;14.50;8.95;;;16.10;99.90;;;;;;5068804;28;20033;-90
2022/04/28 10:43:33;;;;;;;12.65;8.18;;;16.20;99.90;;;;;;5076238;28;20028;-90
2022/04/28 10:46:06;;;;;;;16.60;9.20;;;16.10;99.90;;;;;;5063986;28;20028;-90
2022/04/28 10:48:41;;;;;;;15.30;9.13;;;16.20;99.90;;;;;;5078480;28;20028;-89
2022/04/28 10:51:25;;;;;;;16.98;10.23;;;16.20;99.90;;;;;;5080051;28;20032;-90
2022/04/28 10:54:21;;;;;;;12.77;8.10;;;16.30;99.90;;;;;;5056411;28;20040;-89
2022/04/28 10:57:02;;;;;;;19.65;10.65;;;16.30;99.90;;;;;;5055163;28;20049;-89
2022/04/28 10:59:40;;;;;;;15.02;9.20;;;16.20;99.90;;;;;;5071623;28;20032;-89
2022/04/28 11:02:11;;;;;;;13.75;9.05;;;16.20;99.90;;;;;;5077831;28;20029;-90
2022/04/28 11:04:38;;;;;;;11.20;8.25;;;16.30;99.90;;;;;;5074715;28;20097;-90
2022/04/28 11:07:15;;;;;;;11.82;8.43;;;16.30;99.90;;;;;;5074658;28;20024;-90
2022/04/28 11:09:42;;;;;;;9.10;7.40;;;16.40;99.90;;;;;;5081563;28;20032;-90
2022/04/28 11:12:18;;;;;;;9.60;7.28;;;16.60;99.90;;;;;;5073997;28;20020;-89
2022/04/28 11:14:48;;;;;;;10.82;7.05;;;16.60;99.90;;;;;;5062810;28;20049;-90
2022/04/28 11:17:17;;;;;;;9.32;7.22;;;16.60;99.90;;;;;;5084992;28;20035;-90
2022/04/28 11:19:46;;;;;;;12.23;7.20;;;16.60;99.90;;;;;;5081324;28;20020;-90
2022/04/28 11:22:12;;;;;;;10.52;7.07;;;16.60;99.90;;;;;;5070860;28;20046;-91
2022/04/28 11:24:44;;;;;;;10.85;7.93;;;16.60;99.90;;;;;;5069334;28;20020;-90
2022/04/28 11:27:21;;;;;;;12.43;7.78;;;16.70;99.90;;;;;;5068764;28;20085;-90
2022/04/28 11:29:49;;;;;;;9.73;7.20;;;16.70;99.90;;;;;;5078592;28;20053;-90
2022/04/28 11:32:16;;;;;;;11.93;7.38;;;16.90;99.90;;;;;;5068534;28;20025;-89
2022/04/28 11:34:44;;;;;;;10.98;7.55;;;16.90;99.90;;;;;;5070980;28;20024;-89
2022/04/28 11:37:15;;;;;;;10.10;7.32;;;16.90;99.90;;;;;;5074410;28;20034;-88
2022/04/28 11:39:45;;;;;;;9.77;7.63;;;17.10;99.90;;;;;;5066482;28;20035;-88
2022/04/28 11:42:12;;;;;;;8.07;7.18;;;17.00;99.90;;;;;;5067869;28;20036;-88
2022/04/28 11:45:06;;;;;;;12.45;8.55;;;17.10;99.90;;;;;;5072282;28;20021;-87
2022/04/28 11:47:46;;;;;;;11.48;7.45;;;17.10;99.90;;;;;;5080184;28;20044;-88
2022/04/28 11:50:26;;;;;;;11.68;8.18;;;17.10;99.90;;;;;;5071387;28;20028;-88
2022/04/28 11:53:06;;;;;;;10.13;7.88;;;17.00;99.90;;;;;;5075718;28;20048;-88
2022/04/28 11:55:40;;;;;;;8.45;6.72;;;17.00;99.90;;;;;;5080528;28;20065;-89
2022/04/28 11:58:08;;;;;;;11.05;7.57;;;17.10;99.90;;;;;;5065673;28;20029;-89
2022/04/28 12:00:43;;;;;;;11.48;7.45;;;16.90;99.90;;;;;;5065668;28;20016;-88
2022/04/28 12:03:09;;;;;;;11.75;7.60;;;16.80;99.90;;;;;;5075358;28;20493;-88
2022/04/28 12:05:35;;;;;;;10.40;7.45;;;16.90;99.90;;;;;;5081906;28;20028;-88
2022/04/28 12:08:02;;;;;;;10.98;7.15;;;16.80;99.90;;;;;;5082709;28;20033;-78
2022/04/28 12:16:06;;;;;;;11.10;7.72;;;17.00;99.90;;;;;;5072999;28;20023;-78
2022/04/28 12:21:24;;;;;;;10.95;8.40;;;16.80;99.90;;;;;;5077772;28;20098;-77
2022/04/28 12:23:58;;;;;;;10.82;8.65;;;16.90;99.90;;;;;;5066791;28;20039;-77
2022/04/28 12:26:24;;;;;;;12.20;8.73;;;17.10;99.90;;;;;;5084092;28;20024;-77
2022/04/28 12:28:51;;;;;;;13.00;8.32;;;17.10;99.90;;;;;;5067794;28;20056;-77
2022/04/28 12:31:28;;;;;;;11.77;8.60;;;17.20;99.90;;;;;;5063984;28;20023;-78
2022/04/28 12:33:55;;;;;;;12.57;9.20;;;17.40;99.90;;;;;;5067634;28;20020;-77
2022/04/28 12:36:21;;;;;;;13.07;9.27;;;17.50;99.90;;;;;;5062161;28;20096;-77
2022/04/28 12:38:52;;;;;;;11.77;8.57;;;17.40;99.90;;;;;;5071264;28;20554;-77
2022/04/28 12:41:23;;;;;;;12.15;9.05;;;17.40;99.90;;;;;;5064261;28;20025;-77
2022/04/28 12:43:51;;;;;;;9.57;8.00;;;17.50;99.90;;;;;;5079072;28;20054;-78
2022/04/28 12:46:24;;;;;;;12.40;8.18;;;17.50;99.90;;;;;;5076060;28;20035;-78
2022/04/28 12:48:54;;;;;;;12.93;8.50;;;17.60;99.90;;;;;;5081994;28;20031;-78
2022/04/28 12:51:22;;;;;;;14.50;8.15;;;17.60;99.90;;;;;;5063687;28;20131;-77
2022/04/28 12:53:51;;;;;;;11.52;8.82;;;17.50;99.90;;;;;;5061878;28;20032;-77
2022/04/28 12:56:32;;;;;;;10.32;7.78;;;17.60;99.90;;;;;;5074082;28;20064;-78
2022/04/28 12:58:59;;;;;;;10.15;7.93;;;17.60;99.90;;;;;;5075510;28;20040;-78
2022/04/28 13:01:27;;;;;;;11.82;7.80;;;17.60;99.90;;;;;;5069217;28;20056;-78
2022/04/28 13:03:56;;;;;;;11.63;7.80;;;17.50;99.90;;;;;;5070515;28;20025;-78
2022/04/28 13:06:28;;;;;;;10.35;8.20;;;17.40;99.90;;;;;;5074678;28;20032;-77
2022/04/28 13:08:55;;;;;;;11.65;7.95;;;17.40;99.90;;;;;;5082217;28;20067;-78
2022/04/28 13:11:34;;;;;;;13.40;8.57;;;17.50;99.90;;;;;;5076787;28;20025;-78
2022/04/28 13:14:01;;;;;;;11.18;8.32;;;17.40;99.90;;;;;;5072640;28;20497;-77
2022/04/28 13:16:28;;;;;;;11.25;7.78;;;17.40;99.90;;;;;;5075963;28;20023;-78
2022/04/28 13:18:55;;;;;;;9.15;7.13;;;17.40;99.90;;;;;;5056077;28;20017;-77
2022/04/28 13:21:21;;;;;;;9.10;6.68;;;17.30;99.90;;;;;;5075336;28;20520;-78
2022/04/28 13:23:47;;;;;;;12.23;8.07;;;17.20;99.90;;;;;;5069671;28;20029;-77
2022/04/28 13:26:15;;;;;;;10.32;7.85;;;17.20;99.90;;;;;;5075540;28;20021;-77
2022/04/28 13:28:41;;;;;;;9.10;6.80;;;17.40;99.90;;;;;;5068520;28;20082;-77